createdAt,value
2019-02-11T00:01:46.662Z,63.00
2019-02-11T00:04:12.844Z,58.33
2019-02-11T00:06:39.173Z,45.27
2019-02-11T00:09:07.241Z,58.57
2019-02-11T00:11:33.430Z,62.23
2019-02-11T00:13:59.769Z,64.33
2019-02-11T00:16:25.937Z,66.07
2019-02-11T00:18:52.232Z,50.50
2019-02-11T00:21:18.586Z,53.23
2019-02-11T00:23:44.766Z,38.30
2019-02-11T00:26:11.431Z,43.93
2019-02-11T00:28:37.752Z,45.77
2019-02-11T00:31:03.938Z,49.30
2019-02-11T00:33:30.117Z,43.63
2019-02-11T00:35:56.465Z,42.30
2019-02-11T00:38:22.636Z,42.20
2019-02-11T00:40:48.910Z,36.60
2019-02-11T00:43:19.266Z,40.47
2019-02-11T00:45:43.309Z,44.87
2019-02-11T00:48:09.595Z,54.60
2019-02-11T00:50:35.942Z,55.07
2019-02-11T00:53:02.233Z,43.20
2019-02-11T00:55:28.422Z,43.90
2019-02-11T00:57:54.756Z,44.83
2019-02-11T01:00:20.938Z,45.53
2019-02-11T01:02:47.219Z,45.83
2019-02-11T01:05:13.451Z,48.67
2019-02-11T01:07:39.625Z,50.53
2019-02-11T01:10:08.317Z,47.57
2019-02-11T01:12:34.532Z,45.87
2019-02-11T01:15:00.807Z,44.47
2019-02-11T01:17:27.104Z,34.33
2019-02-11T01:19:53.331Z,38.43
2019-02-11T01:22:19.621Z,34.40
2019-02-11T01:24:45.892Z,36.80
2019-02-11T01:27:12.108Z,32.57
2019-02-11T01:29:38.286Z,38.10
2019-02-11T01:32:04.583Z,34.80
2019-02-11T01:34:30.801Z,38.67
2019-02-11T01:36:57.077Z,33.00
2019-02-11T01:39:23.365Z,36.83
2019-02-11T01:41:49.490Z,37.27
2019-02-11T01:44:15.685Z,37.50
2019-02-11T01:46:41.985Z,32.77
2019-02-11T01:49:08.199Z,32.93
2019-02-11T01:51:34.588Z,32.67
2019-02-11T01:54:00.879Z,32.50
2019-02-11T01:56:27.101Z,34.07
2019-02-11T01:58:53.367Z,27.57
2019-02-11T02:01:19.654Z,35.20
2019-02-11T02:03:45.973Z,26.20
2019-02-11T02:06:12.252Z,28.80
2019-02-11T02:08:38.545Z,27.93
2019-02-11T02:11:04.762Z,27.63
2019-02-11T02:13:30.937Z,27.40
2019-02-11T02:15:57.214Z,26.80
2019-02-11T02:18:23.435Z,32.77
2019-02-11T02:20:49.725Z,28.07
2019-02-11T02:23:15.911Z,36.37
2019-02-11T02:25:42.137Z,24.40
2019-02-11T02:28:08.358Z,30.20
2019-02-11T02:30:34.603Z,21.90
2019-02-11T02:33:00.814Z,25.53
2019-02-11T02:35:26.988Z,23.50
2019-02-11T02:37:53.290Z,23.47
2019-02-11T02:40:19.512Z,21.87
2019-02-11T02:42:45.680Z,24.97
2019-02-11T02:45:11.946Z,24.57
2019-02-11T02:47:38.158Z,20.97
2019-02-11T02:50:07.153Z,28.10
2019-02-11T02:52:33.424Z,26.13
2019-02-11T02:54:59.649Z,27.57
2019-02-11T02:57:25.842Z,23.87
2019-02-11T02:59:52.127Z,26.60
2019-02-11T03:02:18.434Z,27.80
2019-02-11T03:04:44.628Z,28.63
2019-02-11T03:07:10.911Z,27.03
2019-02-11T03:09:37.142Z,28.70
2019-02-11T03:12:03.434Z,16.83
2019-02-11T03:14:29.701Z,23.50
2019-02-11T03:16:55.923Z,19.73
2019-02-11T03:19:22.101Z,23.07
2019-02-11T03:21:48.281Z,22.80
2019-02-11T03:24:14.487Z,22.20
2019-02-11T03:26:40.771Z,21.77
2019-02-11T03:29:07.081Z,24.20
2019-02-11T03:31:33.299Z,23.77
2019-02-11T03:33:59.473Z,24.63
2019-02-11T03:36:25.757Z,29.30
2019-02-11T03:38:51.999Z,24.47
2019-02-11T03:41:18.184Z,24.73
2019-02-11T03:43:44.359Z,27.43
2019-02-11T03:46:10.575Z,29.27
2019-02-11T03:48:36.758Z,26.67
2019-02-11T03:51:02.917Z,29.23
2019-02-11T03:53:29.245Z,31.80
2019-02-11T03:55:55.425Z,30.07
2019-02-11T03:58:21.630Z,30.53
2019-02-11T04:00:47.958Z,27.37
2019-02-11T04:03:14.144Z,26.77
2019-02-11T04:05:40.417Z,28.40
2019-02-11T04:08:06.762Z,27.17
2019-02-11T04:10:33.002Z,22.97
2019-02-11T04:12:59.334Z,29.87
2019-02-11T04:15:25.567Z,27.50
2019-02-11T04:17:51.862Z,31.93
2019-02-11T04:20:18.156Z,24.37
2019-02-11T04:22:44.403Z,21.43
2019-02-11T04:25:10.585Z,22.80
2019-02-11T04:27:36.777Z,31.57
2019-02-11T04:30:05.024Z,28.00
2019-02-11T04:32:31.186Z,30.63
2019-02-11T04:34:57.462Z,32.13
2019-02-11T04:37:23.859Z,25.73
2019-02-11T04:39:50.080Z,21.50
2019-02-11T04:42:16.258Z,32.47
2019-02-11T04:44:42.496Z,14.23
2019-02-11T04:47:08.685Z,20.27
2019-02-11T04:49:34.965Z,19.37
2019-02-11T04:52:01.283Z,18.10
2019-02-11T04:54:27.566Z,24.57
2019-02-11T04:56:53.764Z,23.67
2019-02-11T04:59:20.245Z,31.90
2019-02-11T05:01:46.517Z,31.10
2019-02-11T05:04:12.798Z,28.40
2019-02-11T05:06:39.138Z,22.40
2019-02-11T05:09:05.629Z,21.60
2019-02-11T05:11:31.922Z,26.90
2019-02-11T05:13:58.192Z,25.83
2019-02-11T05:16:24.438Z,31.07
2019-02-11T05:18:50.741Z,21.90
2019-02-11T05:21:16.984Z,27.40
2019-02-11T05:23:43.258Z,29.60
2019-02-11T05:26:09.571Z,37.27
2019-02-11T05:28:35.802Z,31.53
2019-02-11T05:31:02.100Z,31.33
2019-02-11T05:33:28.404Z,35.13
2019-02-11T05:35:54.631Z,39.93
2019-02-11T05:38:20.920Z,43.80
2019-02-11T05:40:47.224Z,39.60
2019-02-11T05:43:13.445Z,38.27
2019-02-11T05:45:39.730Z,45.47
2019-02-11T05:48:06.074Z,58.67
2019-02-11T05:50:32.278Z,62.83
2019-02-11T05:52:58.564Z,62.13
2019-02-11T05:55:24.835Z,67.17
2019-02-11T05:57:51.071Z,72.73
2019-02-11T06:00:18.160Z,49.97
2019-02-11T06:02:44.450Z,51.07
2019-02-11T06:05:10.663Z,47.17
2019-02-11T06:07:36.854Z,50.70
2019-02-11T06:10:06.438Z,57.83
2019-02-11T06:12:32.687Z,52.70
2019-02-11T06:15:04.230Z,63.30
2019-02-11T06:17:27.070Z,47.43
2019-02-11T06:19:53.292Z,58.70
2019-02-11T06:22:19.584Z,54.67
2019-02-11T06:24:45.774Z,58.97
2019-02-11T06:27:12.364Z,41.40
2019-02-11T06:29:39.039Z,36.93
2019-02-11T06:32:05.241Z,53.47
2019-02-11T06:34:31.505Z,50.53
2019-02-11T06:36:57.809Z,34.13
2019-02-11T06:39:23.999Z,45.17
2019-02-11T06:41:50.339Z,53.27
2019-02-11T06:44:16.637Z,39.17
2019-02-11T06:46:42.934Z,33.70
2019-02-11T06:49:09.276Z,45.60
2019-02-11T06:51:35.564Z,63.80
2019-02-11T06:54:01.747Z,112.53
2019-02-11T06:56:28.100Z,95.03
2019-02-11T06:58:54.387Z,59.70
2019-02-11T07:01:20.590Z,34.57
2019-02-11T07:03:46.830Z,52.17
2019-02-11T07:06:13.122Z,48.53
2019-02-11T07:08:39.293Z,48.13
2019-02-11T07:11:05.630Z,36.33
2019-02-11T07:13:31.918Z,46.23
2019-02-11T07:15:58.108Z,40.93
2019-02-11T07:18:24.471Z,41.33
2019-02-11T07:20:50.758Z,42.53
2019-02-11T07:23:17.422Z,44.30
2019-02-11T07:25:43.774Z,44.93
2019-02-11T07:28:10.088Z,49.97
2019-02-11T07:30:36.277Z,42.43
2019-02-11T07:33:02.647Z,44.13
2019-02-11T07:35:28.976Z,54.30
2019-02-11T07:37:55.286Z,42.43
2019-02-11T07:40:21.514Z,41.17
2019-02-11T07:42:52.616Z,57.73
2019-02-11T07:45:29.911Z,47.50
2019-02-11T07:47:51.355Z,57.27
2019-02-11T07:50:17.560Z,92.37
2019-02-11T07:52:43.782Z,65.50
2019-02-11T07:55:09.975Z,62.60
2019-02-11T07:57:36.150Z,60.67
2019-02-11T08:00:03.316Z,61.43
2019-02-11T08:02:29.641Z,50.83
2019-02-11T08:04:55.843Z,50.00
2019-02-11T08:07:22.197Z,62.17
2019-02-11T08:09:48.383Z,48.00
2019-02-11T08:12:14.581Z,40.67
2019-02-11T08:14:41.355Z,54.30
2019-02-11T08:17:07.551Z,45.03
2019-02-11T08:19:33.724Z,36.73
2019-02-11T08:22:00.087Z,33.63
2019-02-11T08:24:26.265Z,28.67
2019-02-11T08:26:52.471Z,31.37
2019-02-11T08:29:18.790Z,24.57
2019-02-11T08:31:45.067Z,27.53
2019-02-11T08:34:11.342Z,21.67
2019-02-11T08:36:37.624Z,32.83
2019-02-11T08:39:04.498Z,26.20
2019-02-11T08:41:30.697Z,28.40
2019-02-11T08:43:58.282Z,39.10
2019-02-11T08:46:24.600Z,25.10
2019-02-11T08:48:50.890Z,30.83
2019-02-11T08:51:17.196Z,28.00
2019-02-11T08:53:43.386Z,30.03
2019-02-11T08:56:09.566Z,32.00
2019-02-11T08:58:35.782Z,34.07
2019-02-11T09:01:02.098Z,35.03
2019-02-11T09:03:28.408Z,32.27
2019-02-11T09:05:54.633Z,28.57
2019-02-11T09:08:20.928Z,21.67
2019-02-11T09:10:53.830Z,22.92
2019-02-11T09:13:20.157Z,22.07
2019-02-11T09:15:46.334Z,25.77
2019-02-11T09:18:12.526Z,21.87
2019-02-11T09:20:38.854Z,30.37
2019-02-11T09:23:05.043Z,30.13
2019-02-11T09:25:31.331Z,22.33
2019-02-11T09:27:57.577Z,24.90
2019-02-11T09:30:24.106Z,33.37
2019-02-11T09:32:50.399Z,22.00
2019-02-11T09:35:16.731Z,20.83
2019-02-11T09:37:42.920Z,20.27
2019-02-11T09:40:12.096Z,22.93
2019-02-11T09:42:38.301Z,21.87
2019-02-11T09:45:08.092Z,18.43
2019-02-11T09:47:34.368Z,20.47
2019-02-11T09:50:38.561Z,24.63
2019-02-11T09:53:05.171Z,25.83
2019-02-11T09:55:32.869Z,23.73
2019-02-11T09:57:59.103Z,22.40
2019-02-11T10:00:25.487Z,22.17
2019-02-11T10:02:51.670Z,26.53
2019-02-11T10:05:17.888Z,25.67
2019-02-11T10:07:44.200Z,29.80
2019-02-11T10:10:10.502Z,25.60
2019-02-11T10:12:36.859Z,25.70
2019-02-11T10:15:08.772Z,25.17
2019-02-11T10:17:34.965Z,24.07
2019-02-11T10:20:01.319Z,25.27
2019-02-11T10:22:27.590Z,22.40
2019-02-11T10:24:53.920Z,23.07
2019-02-11T10:27:20.250Z,24.17
2019-02-11T10:29:46.438Z,23.10
2019-02-11T10:32:12.752Z,21.30
2019-02-11T10:34:39.082Z,19.37
2019-02-11T10:37:05.379Z,19.43
2019-02-11T10:39:31.657Z,19.93
2019-02-11T10:41:58.035Z,19.10
2019-02-11T10:44:24.217Z,20.03
2019-02-11T10:46:50.430Z,15.50
2019-02-11T10:49:16.788Z,19.63
2019-02-11T10:51:43.104Z,13.30
2019-02-11T10:54:09.393Z,13.20
2019-02-11T10:56:35.714Z,12.83
2019-02-11T10:59:02.023Z,11.40
2019-02-11T11:01:28.203Z,19.37
2019-02-11T11:03:54.543Z,12.00
2019-02-11T11:06:20.854Z,10.00
2019-02-11T11:08:47.038Z,13.53
2019-02-11T11:11:13.367Z,11.40
2019-02-11T11:13:39.548Z,9.90
2019-02-11T11:16:05.864Z,15.40
2019-02-11T11:18:32.187Z,12.27
2019-02-11T11:20:58.479Z,12.00
2019-02-11T11:23:24.757Z,14.60
2019-02-11T11:25:51.113Z,12.77
2019-02-11T11:28:17.300Z,12.03
2019-02-11T11:30:43.585Z,12.63
2019-02-11T11:33:09.817Z,11.17
2019-02-11T11:35:35.996Z,8.17
2019-02-11T11:38:02.314Z,11.37
2019-02-11T11:40:28.658Z,11.90
2019-02-11T11:42:54.957Z,11.53
2019-02-11T11:45:21.257Z,23.17
2019-02-11T11:47:47.593Z,13.50
2019-02-11T11:50:15.262Z,12.10
2019-02-11T11:52:41.560Z,12.97
2019-02-11T11:55:10.406Z,11.07
2019-02-11T11:57:36.707Z,14.97
2019-02-11T12:00:06.637Z,11.10
2019-02-11T12:02:33.028Z,13.13
2019-02-11T12:04:59.333Z,13.93
2019-02-11T12:07:25.633Z,10.70
2019-02-11T12:09:51.967Z,8.57
2019-02-11T12:12:18.252Z,10.43
2019-02-11T12:14:44.525Z,8.40
2019-02-11T12:17:10.849Z,9.53
2019-02-11T12:19:37.039Z,11.70
2019-02-11T12:22:03.343Z,7.43
2019-02-11T12:24:29.640Z,11.90
2019-02-11T12:26:55.816Z,11.03
2019-02-11T12:29:22.061Z,11.23
2019-02-11T12:31:48.592Z,10.00
2019-02-11T12:34:14.848Z,13.47
2019-02-11T12:36:41.123Z,10.77
2019-02-11T12:39:07.408Z,10.53
2019-02-11T12:41:33.680Z,10.83
2019-02-11T12:43:59.941Z,10.90
2019-02-11T12:46:26.131Z,14.73
2019-02-11T12:48:52.384Z,17.37
2019-02-11T12:51:18.677Z,10.87
2019-02-11T12:53:44.885Z,10.30
2019-02-11T12:56:11.053Z,11.60
2019-02-11T12:58:37.223Z,10.30
2019-02-11T13:01:03.868Z,12.43
2019-02-11T13:03:30.082Z,11.17
2019-02-11T13:05:56.369Z,9.33
2019-02-11T13:08:23.674Z,12.10
2019-02-11T13:10:49.949Z,12.50
2019-02-11T13:13:16.149Z,16.37
2019-02-11T13:15:59.990Z,21.10
2019-02-11T13:18:10.447Z,12.80
2019-02-11T13:20:36.772Z,15.30
2019-02-11T13:23:03.175Z,14.03
2019-02-11T13:25:29.395Z,12.93
2019-02-11T13:27:55.571Z,13.17
2019-02-11T13:30:23.479Z,17.80
2019-02-11T13:32:49.742Z,11.77
2019-02-11T13:35:15.942Z,17.07
2019-02-11T13:37:42.330Z,17.93
2019-02-11T13:40:09.487Z,20.23
2019-02-11T13:42:35.645Z,18.73
2019-02-11T13:45:03.879Z,16.77
2019-02-11T13:47:30.018Z,25.30
2019-02-11T13:49:56.317Z,14.50
2019-02-11T13:52:22.613Z,16.37
2019-02-11T13:54:48.762Z,17.50
2019-02-11T13:57:15.014Z,21.10
2019-02-11T13:59:41.591Z,17.90
2019-02-11T14:02:07.799Z,21.67
2019-02-11T14:04:34.055Z,18.00
2019-02-11T14:07:00.319Z,19.23
2019-02-11T14:09:26.679Z,19.37
2019-02-11T14:11:52.855Z,20.57
2019-02-11T14:14:22.775Z,25.37
2019-02-11T14:16:49.049Z,20.10
2019-02-11T14:19:15.209Z,15.57
2019-02-11T14:21:41.540Z,16.47
2019-02-11T14:24:07.815Z,14.27
2019-02-11T14:26:34.001Z,16.87
2019-02-11T14:29:00.323Z,19.40
2019-02-11T14:31:30.492Z,18.07
2019-02-11T14:33:54.812Z,19.63
2019-02-11T14:36:21.041Z,20.87
2019-02-11T14:38:47.284Z,57.73
2019-02-11T14:41:13.440Z,20.93
2019-02-11T14:43:39.759Z,18.83
2019-02-11T14:46:06.022Z,23.53
2019-02-11T14:48:32.204Z,17.23
2019-02-11T14:50:58.489Z,21.83
2019-02-11T14:53:24.672Z,19.23
2019-02-11T14:55:50.829Z,21.73
2019-02-11T14:58:17.046Z,20.43
2019-02-11T15:00:43.316Z,24.53
2019-02-11T15:03:09.484Z,24.83
2019-02-11T15:05:35.777Z,23.20
2019-02-11T15:08:01.943Z,21.87
2019-02-11T15:10:28.143Z,24.97
2019-02-11T15:12:54.443Z,29.87
2019-02-11T15:15:20.727Z,20.73
2019-02-11T15:17:46.886Z,20.17
2019-02-11T15:20:14.805Z,28.17
2019-02-11T15:22:40.971Z,25.43
2019-02-11T15:25:11.817Z,25.80
2019-02-11T15:27:38.320Z,24.77
2019-02-11T15:30:07.509Z,20.60
2019-02-11T15:32:33.822Z,21.03
2019-02-11T15:35:00.322Z,23.70
2019-02-11T15:37:26.516Z,24.83
2019-02-11T15:39:52.798Z,29.00
2019-02-11T15:42:19.005Z,30.47
2019-02-11T15:44:45.165Z,30.70
2019-02-11T15:47:12.669Z,23.03
2019-02-11T15:49:38.982Z,24.63
2019-02-11T15:52:05.160Z,30.63
2019-02-11T15:54:31.335Z,26.57
2019-02-11T15:56:57.557Z,28.87
2019-02-11T15:59:23.706Z,28.67
2019-02-11T16:01:49.992Z,23.73
2019-02-11T16:04:16.381Z,26.60
2019-02-11T16:06:42.674Z,23.83
2019-02-11T16:09:08.951Z,24.37
2019-02-11T16:11:37.170Z,28.73
2019-02-11T16:14:03.350Z,23.97
2019-02-11T16:16:29.620Z,26.27
2019-02-11T16:18:55.938Z,26.20
2019-02-11T16:21:22.191Z,27.03
2019-02-11T16:23:48.352Z,15.00
2019-02-11T16:26:14.544Z,17.50
2019-02-11T16:28:40.709Z,14.73
2019-02-11T16:31:07.004Z,16.27
2019-02-11T16:33:33.296Z,15.73
2019-02-11T16:35:59.545Z,16.53
2019-02-11T16:38:25.823Z,20.50
2019-02-11T16:40:52.018Z,20.37
2019-02-11T16:43:18.295Z,25.87
2019-02-11T16:45:44.466Z,24.97
2019-02-11T16:48:10.782Z,19.97
2019-02-11T16:50:37.051Z,22.47
2019-02-11T16:53:03.339Z,18.40
2019-02-11T16:55:29.653Z,22.67
2019-02-11T16:57:55.922Z,26.40
2019-02-11T17:00:22.091Z,24.47
2019-02-11T17:02:48.371Z,17.50
2019-02-11T17:05:14.644Z,22.40
2019-02-11T17:07:42.183Z,22.57
2019-02-11T17:10:10.637Z,19.97
2019-02-11T17:12:36.998Z,23.20
2019-02-11T17:15:06.082Z,19.70
2019-02-11T17:17:32.273Z,30.47
2019-02-11T17:19:58.539Z,21.03
2019-02-11T17:22:24.814Z,21.40
2019-02-11T17:24:51.021Z,18.80
2019-02-11T17:27:17.309Z,19.97
2019-02-11T17:29:43.497Z,19.33
2019-02-11T17:32:09.841Z,23.30
2019-02-11T17:34:36.133Z,21.87
2019-02-11T17:37:02.401Z,30.50
2019-02-11T17:39:28.590Z,24.23
2019-02-11T17:41:54.850Z,26.50
2019-02-11T17:44:21.433Z,29.00
2019-02-11T17:46:47.637Z,20.30
2019-02-11T17:49:17.819Z,22.93
2019-02-11T17:51:42.112Z,22.43
2019-02-11T17:54:08.413Z,19.67
2019-02-11T17:56:34.594Z,24.33
2019-02-11T17:59:00.786Z,23.90
2019-02-11T18:01:27.086Z,17.13
2019-02-11T18:03:53.455Z,26.33
2019-02-11T18:06:20.496Z,27.43
2019-02-11T18:08:46.792Z,23.57
2019-02-11T18:11:13.072Z,22.20
2019-02-11T18:13:39.245Z,28.00
2019-02-11T18:16:05.503Z,24.80
2019-02-11T18:18:31.771Z,20.60
2019-02-11T18:20:57.944Z,23.90
2019-02-11T18:23:24.140Z,22.00
2019-02-11T18:25:50.413Z,19.87
2019-02-11T18:28:16.690Z,18.63
2019-02-11T18:30:43.020Z,18.60
2019-02-11T18:33:09.717Z,21.10
2019-02-11T18:35:35.893Z,26.57
2019-02-11T18:38:02.206Z,26.67
2019-02-11T18:40:28.387Z,18.70
2019-02-11T18:42:54.669Z,32.27
2019-02-11T18:45:20.975Z,31.33
2019-02-11T18:47:47.276Z,22.93
2019-02-11T18:50:14.341Z,16.37
2019-02-11T18:52:40.562Z,28.07
2019-02-11T18:55:12.673Z,21.70
2019-02-11T18:57:38.950Z,19.80
2019-02-11T19:00:08.288Z,19.63
2019-02-11T19:02:34.444Z,22.80
2019-02-11T19:05:00.609Z,29.10
2019-02-11T19:07:26.926Z,24.97
2019-02-11T19:09:53.104Z,21.90
2019-02-11T19:12:19.259Z,20.53
2019-02-11T19:14:46.627Z,28.20
2019-02-11T19:17:12.964Z,44.57
2019-02-11T19:19:43.100Z,26.73
2019-02-11T19:22:07.357Z,27.17
2019-02-11T19:24:33.641Z,26.27
2019-02-11T19:26:59.820Z,27.33
2019-02-11T19:29:26.096Z,24.17
2019-02-11T19:31:52.262Z,24.13
2019-02-11T19:34:18.427Z,27.83
2019-02-11T19:36:44.630Z,27.53
2019-02-11T19:39:10.916Z,23.07
2019-02-11T19:41:37.071Z,24.13
2019-02-11T19:44:03.281Z,17.47
2019-02-11T19:46:29.548Z,30.03
2019-02-11T19:48:55.713Z,23.00
2019-02-11T19:51:22.111Z,24.67
2019-02-11T19:53:48.386Z,29.93
2019-02-11T19:56:14.563Z,29.23
2019-02-11T19:58:40.760Z,30.27
2019-02-11T20:01:07.035Z,24.70
2019-02-11T20:03:33.207Z,21.60
2019-02-11T20:05:59.415Z,22.53
2019-02-11T20:08:25.586Z,26.73
2019-02-11T20:10:51.770Z,17.33
2019-02-11T20:13:18.079Z,26.40
2019-02-11T20:15:44.253Z,23.30
2019-02-11T20:18:10.424Z,27.17
2019-02-11T20:20:36.628Z,30.30
2019-02-11T20:23:02.890Z,23.27
2019-02-11T20:25:29.068Z,27.73
2019-02-11T20:27:55.263Z,29.10
2019-02-11T20:30:29.452Z,24.10
2019-02-11T20:32:55.639Z,26.57
2019-02-11T20:35:21.833Z,28.77
2019-02-11T20:37:48.001Z,27.70
2019-02-11T20:40:17.780Z,24.93
2019-02-11T20:42:44.067Z,26.43
2019-02-11T20:45:13.790Z,23.87
2019-02-11T20:47:40.014Z,35.27
2019-02-11T20:50:09.319Z,25.23
2019-02-11T20:52:35.097Z,31.17
2019-02-11T20:55:01.359Z,35.83
2019-02-11T20:57:27.667Z,36.00
2019-02-11T20:59:53.826Z,33.80
2019-02-11T21:02:20.008Z,30.87
2019-02-11T21:04:46.304Z,28.97
2019-02-11T21:07:12.579Z,25.33
2019-02-11T21:09:38.860Z,21.27
2019-02-11T21:12:05.196Z,29.10
2019-02-11T21:14:31.361Z,21.83
2019-02-11T21:16:57.665Z,18.90
2019-02-11T21:19:23.968Z,25.07
2019-02-11T21:21:50.247Z,21.73
2019-02-11T21:24:16.409Z,17.97
2019-02-11T21:26:42.614Z,19.67
2019-02-11T21:29:08.885Z,15.73
2019-02-11T21:31:36.925Z,17.60
2019-02-11T21:34:03.397Z,19.17
2019-02-11T21:36:29.569Z,18.23
2019-02-11T21:38:56.050Z,19.27
2019-02-11T21:41:22.384Z,18.17
2019-02-11T21:43:48.667Z,17.63
2019-02-11T21:46:14.953Z,17.67
2019-02-11T21:48:41.152Z,18.27
2019-02-11T21:51:07.338Z,20.77
2019-02-11T21:53:33.585Z,20.60
2019-02-11T21:55:59.791Z,19.17
2019-02-11T21:58:26.076Z,17.23
2019-02-11T22:00:52.335Z,17.83
2019-02-11T22:03:18.654Z,19.03
2019-02-11T22:05:44.939Z,21.90
2019-02-11T22:08:11.132Z,28.87
2019-02-11T22:10:37.346Z,22.13
2019-02-11T22:13:03.512Z,29.23
2019-02-11T22:15:30.692Z,24.30
2019-02-11T22:17:57.870Z,17.83
2019-02-11T22:20:24.135Z,14.87
2019-02-11T22:22:50.322Z,17.13
2019-02-11T22:25:16.632Z,16.53
2019-02-11T22:27:42.917Z,14.67
2019-02-11T22:30:14.898Z,16.57
2019-02-11T22:32:41.201Z,17.30
2019-02-11T22:35:10.087Z,12.00
2019-02-11T22:37:36.367Z,16.87
2019-02-11T22:40:03.791Z,14.03
2019-02-11T22:42:29.955Z,12.70
2019-02-11T22:44:56.132Z,14.47
2019-02-11T22:47:22.332Z,12.97
2019-02-11T22:49:48.604Z,13.93
2019-02-11T22:52:14.811Z,15.83
2019-02-11T22:54:41.026Z,13.77
2019-02-11T22:57:07.309Z,13.13
2019-02-11T22:59:33.583Z,10.03
2019-02-11T23:02:00.484Z,14.97
2019-02-11T23:04:26.652Z,12.70
2019-02-11T23:06:52.824Z,15.10
2019-02-11T23:09:19.153Z,11.57
2019-02-11T23:11:45.409Z,15.63
2019-02-11T23:14:11.680Z,13.70
2019-02-11T23:16:38.735Z,12.00
2019-02-11T23:19:05.727Z,14.07
2019-02-11T23:21:32.015Z,15.37
2019-02-11T23:23:58.194Z,9.90
2019-02-11T23:26:24.380Z,12.30
2019-02-11T23:28:50.660Z,10.40
2019-02-11T23:31:16.955Z,12.83
2019-02-11T23:33:43.133Z,11.70
2019-02-11T23:36:09.388Z,8.60
2019-02-11T23:38:35.691Z,11.67
2019-02-11T23:41:01.974Z,9.47
2019-02-11T23:43:28.271Z,13.13
2019-02-11T23:45:54.582Z,10.00
2019-02-11T23:48:20.729Z,13.77
2019-02-11T23:50:47.004Z,8.70
2019-02-11T23:53:13.297Z,10.57
2019-02-11T23:55:39.573Z,18.40
2019-02-11T23:58:05.741Z,21.80
